sensor_id;sensor_type;location;lat;lon;timestamp;P1;durP1;ratioP1;P2;durP2;ratioP2
9174;SDS011;54374;50.196;8.050;2022-08-03T00:02:23;4.10;;;2.70;;
9174;SDS011;54374;50.196;8.050;2022-08-03T00:04:50;3.10;;;2.90;;
9174;SDS011;54374;50.196;8.050;2022-08-03T00:07:18;2.80;;;2.60;;
9174;SDS011;54374;50.196;8.050;2022-08-03T00:09:45;2.80;;;2.60;;
9174;SDS011;54374;50.196;8.050;2022-08-03T00:12:12;2.63;;;2.43;;
9174;SDS011;54374;50.196;8.050;2022-08-03T00:14:39;3.13;;;2.70;;
9174;SDS011;54374;50.196;8.050;2022-08-03T00:17:07;2.87;;;2.67;;
9174;SDS011;54374;50.196;8.050;2022-08-03T00:19:34;3.07;;;2.77;;
9174;SDS011;54374;50.196;8.050;2022-08-03T00:22:01;2.97;;;2.67;;
9174;SDS011;54374;50.196;8.050;2022-08-03T00:24:29;4.10;;;2.90;;
9174;SDS011;54374;50.196;8.050;2022-08-03T00:26:56;3.80;;;2.70;;
9174;SDS011;54374;50.196;8.050;2022-08-03T00:29:23;3.53;;;2.90;;
9174;SDS011;54374;50.196;8.050;2022-08-03T00:31:51;2.70;;;2.50;;
9174;SDS011;54374;50.196;8.050;2022-08-03T00:34:19;4.10;;;3.13;;
9174;SDS011;54374;50.196;8.050;2022-08-03T00:36:46;3.37;;;2.47;;
9174;SDS011;54374;50.196;8.050;2022-08-03T00:39:13;5.00;;;3.20;;
9174;SDS011;54374;50.196;8.050;2022-08-03T00:41:40;3.63;;;3.33;;
9174;SDS011;54374;50.196;8.050;2022-08-03T00:44:07;4.57;;;3.20;;
9174;SDS011;54374;50.196;8.050;2022-08-03T00:46:34;3.50;;;2.87;;
9174;SDS011;54374;50.196;8.050;2022-08-03T00:49:01;3.30;;;2.97;;
9174;SDS011;54374;50.196;8.050;2022-08-03T00:51:30;3.43;;;3.13;;
9174;SDS011;54374;50.196;8.050;2022-08-03T00:54:02;3.17;;;2.87;;
9174;SDS011;54374;50.196;8.050;2022-08-03T00:56:29;3.40;;;3.10;;
9174;SDS011;54374;50.196;8.050;2022-08-03T00:58:57;4.20;;;3.10;;
9174;SDS011;54374;50.196;8.050;2022-08-03T01:01:24;3.33;;;2.77;;
9174;SDS011;54374;50.196;8.050;2022-08-03T01:03:52;3.50;;;2.87;;
9174;SDS011;54374;50.196;8.050;2022-08-03T01:06:22;5.97;;;2.93;;
9174;SDS011;54374;50.196;8.050;2022-08-03T01:08:57;2.83;;;2.63;;
9174;SDS011;54374;50.196;8.050;2022-08-03T01:11:35;3.57;;;2.80;;
9174;SDS011;54374;50.196;8.050;2022-08-03T01:14:12;3.53;;;2.80;;
9174;SDS011;54374;50.196;8.050;2022-08-03T01:16:43;3.77;;;2.90;;
9174;SDS011;54374;50.196;8.050;2022-08-03T01:19:22;3.80;;;3.00;;
9174;SDS011;54374;50.196;8.050;2022-08-03T01:22:04;2.83;;;2.63;;
9174;SDS011;54374;50.196;8.050;2022-08-03T01:24:54;3.20;;;2.80;;
9174;SDS011;54374;50.196;8.050;2022-08-03T01:27:30;2.83;;;2.63;;
9174;SDS011;54374;50.196;8.050;2022-08-03T01:30:08;3.50;;;3.20;;
9174;SDS011;54374;50.196;8.050;2022-08-03T01:32:39;4.90;;;3.20;;
9174;SDS011;54374;50.196;8.050;2022-08-03T01:35:10;3.63;;;2.90;;
9174;SDS011;54374;50.196;8.050;2022-08-03T01:37:42;6.90;;;3.03;;
9174;SDS011;54374;50.196;8.050;2022-08-03T01:40:20;3.40;;;2.90;;
9174;SDS011;54374;50.196;8.050;2022-08-03T01:42:50;3.10;;;2.88;;
9174;SDS011;54374;50.196;8.050;2022-08-03T01:45:24;4.07;;;3.03;;
9174;SDS011;54374;50.196;8.050;2022-08-03T01:47:52;5.27;;;3.37;;
9174;SDS011;54374;50.196;8.050;2022-08-03T01:50:21;4.07;;;3.00;;
9174;SDS011;54374;50.196;8.050;2022-08-03T01:52:52;4.47;;;3.00;;
9174;SDS011;54374;50.196;8.050;2022-08-03T01:55:21;3.40;;;3.10;;
9174;SDS011;54374;50.196;8.050;2022-08-03T01:57:51;3.20;;;2.90;;
9174;SDS011;54374;50.196;8.050;2022-08-03T02:00:21;2.80;;;2.60;;
9174;SDS011;54374;50.196;8.050;2022-08-03T02:03:40;3.08;;;2.80;;
9174;SDS011;54374;50.196;8.050;2022-08-03T02:06:12;3.17;;;2.53;;
9174;SDS011;54374;50.196;8.050;2022-08-03T02:08:42;7.72;;;2.75;;
9174;SDS011;54374;50.196;8.050;2022-08-03T02:11:10;3.35;;;2.60;;
9174;SDS011;54374;50.196;8.050;2022-08-03T02:13:38;3.35;;;3.05;;
9174;SDS011;54374;50.196;8.050;2022-08-03T02:16:07;3.20;;;2.90;;
9174;SDS011;54374;50.196;8.050;2022-08-03T02:18:35;3.58;;;3.28;;
9174;SDS011;54374;50.196;8.050;2022-08-03T02:21:04;4.38;;;3.67;;
9174;SDS011;54374;50.196;8.050;2022-08-03T02:23:34;4.47;;;3.38;;
9174;SDS011;54374;50.196;8.050;2022-08-03T02:26:03;3.25;;;3.00;;
9174;SDS011;54374;50.196;8.050;2022-08-03T02:28:35;5.45;;;3.47;;
9174;SDS011;54374;50.196;8.050;2022-08-03T02:31:04;6.28;;;3.10;;
9174;SDS011;54374;50.196;8.050;2022-08-03T02:33:40;3.72;;;3.00;;
9174;SDS011;54374;50.196;8.050;2022-08-03T02:36:09;3.88;;;2.88;;
9174;SDS011;54374;50.196;8.050;2022-08-03T02:38:40;3.28;;;2.97;;
9174;SDS011;54374;50.196;8.050;2022-08-03T02:41:12;4.15;;;2.65;;
9174;SDS011;54374;50.196;8.050;2022-08-03T02:43:43;3.42;;;2.92;;
9174;SDS011;54374;50.196;8.050;2022-08-03T02:46:16;3.45;;;3.15;;
9174;SDS011;54374;50.196;8.050;2022-08-03T02:48:45;4.78;;;3.25;;
9174;SDS011;54374;50.196;8.050;2022-08-03T02:51:13;3.47;;;3.17;;
9174;SDS011;54374;50.196;8.050;2022-08-03T02:53:42;3.25;;;2.95;;
9174;SDS011;54374;50.196;8.050;2022-08-03T02:56:11;3.22;;;2.85;;
9174;SDS011;54374;50.196;8.050;2022-08-03T02:58:39;3.30;;;2.97;;
9174;SDS011;54374;50.196;8.050;2022-08-03T03:01:09;3.92;;;3.20;;
9174;SDS011;54374;50.196;8.050;2022-08-03T03:03:38;5.50;;;2.88;;
9174;SDS011;54374;50.196;8.050;2022-08-03T03:06:06;3.55;;;3.33;;
9174;SDS011;54374;50.196;8.050;2022-08-03T03:08:34;3.47;;;2.80;;
9174;SDS011;54374;50.196;8.050;2022-08-03T03:11:03;4.50;;;3.17;;
9174;SDS011;54374;50.196;8.050;2022-08-03T03:13:34;4.18;;;2.92;;
9174;SDS011;54374;50.196;8.050;2022-08-03T03:16:02;3.25;;;2.63;;
9174;SDS011;54374;50.196;8.050;2022-08-03T03:18:32;3.95;;;3.40;;
9174;SDS011;54374;50.196;8.050;2022-08-03T03:21:02;4.25;;;3.10;;
9174;SDS011;54374;50.196;8.050;2022-08-03T03:23:30;4.45;;;3.80;;
9174;SDS011;54374;50.196;8.050;2022-08-03T03:25:59;3.25;;;2.95;;
9174;SDS011;54374;50.196;8.050;2022-08-03T03:28:27;2.85;;;2.65;;
9174;SDS011;54374;50.196;8.050;2022-08-03T03:30:55;4.13;;;3.45;;
9174;SDS011;54374;50.196;8.050;2022-08-03T03:33:23;3.67;;;3.38;;
9174;SDS011;54374;50.196;8.050;2022-08-03T03:35:50;2.97;;;2.67;;
9174;SDS011;54374;50.196;8.050;2022-08-03T03:38:19;3.70;;;3.10;;
9174;SDS011;54374;50.196;8.050;2022-08-03T03:40:46;4.20;;;2.90;;
9174;SDS011;54374;50.196;8.050;2022-08-03T03:43:14;4.00;;;3.40;;
9174;SDS011;54374;50.196;8.050;2022-08-03T03:45:42;5.10;;;3.40;;
9174;SDS011;54374;50.196;8.050;2022-08-03T03:48:11;5.22;;;3.60;;
9174;SDS011;54374;50.196;8.050;2022-08-03T03:50:38;4.00;;;3.10;;
9174;SDS011;54374;50.196;8.050;2022-08-03T03:53:07;3.53;;;3.22;;
9174;SDS011;54374;50.196;8.050;2022-08-03T03:55:37;3.88;;;2.80;;
9174;SDS011;54374;50.196;8.050;2022-08-03T03:58:04;4.38;;;3.50;;
9174;SDS011;54374;50.196;8.050;2022-08-03T04:00:33;5.18;;;3.25;;
9174;SDS011;54374;50.196;8.050;2022-08-03T04:03:00;3.88;;;3.58;;
9174;SDS011;54374;50.196;8.050;2022-08-03T04:05:27;4.45;;;3.30;;
9174;SDS011;54374;50.196;8.050;2022-08-03T04:08:13;4.30;;;2.90;;
9174;SDS011;54374;50.196;8.050;2022-08-03T04:11:04;4.18;;;3.42;;
9174;SDS011;54374;50.196;8.050;2022-08-03T04:13:37;3.20;;;2.90;;
9174;SDS011;54374;50.196;8.050;2022-08-03T04:16:08;3.38;;;3.00;;
9174;SDS011;54374;50.196;8.050;2022-08-03T04:18:40;3.60;;;2.88;;
9174;SDS011;54374;50.196;8.050;2022-08-03T04:21:12;3.85;;;3.45;;
9174;SDS011;54374;50.196;8.050;2022-08-03T04:23:42;3.40;;;3.10;;
9174;SDS011;54374;50.196;8.050;2022-08-03T04:26:14;3.15;;;2.88;;
9174;SDS011;54374;50.196;8.050;2022-08-03T04:28:45;3.55;;;2.70;;
9174;SDS011;54374;50.196;8.050;2022-08-03T04:31:15;3.10;;;2.80;;
9174;SDS011;54374;50.196;8.050;2022-08-03T04:33:43;4.88;;;3.20;;
9174;SDS011;54374;50.196;8.050;2022-08-03T04:36:13;4.00;;;3.00;;
9174;SDS011;54374;50.196;8.050;2022-08-03T04:38:43;4.15;;;2.80;;
9174;SDS011;54374;50.196;8.050;2022-08-03T04:41:21;3.30;;;3.00;;
9174;SDS011;54374;50.196;8.050;2022-08-03T04:43:52;6.78;;;3.28;;
9174;SDS011;54374;50.196;8.050;2022-08-03T04:46:21;3.80;;;2.97;;
9174;SDS011;54374;50.196;8.050;2022-08-03T04:48:51;4.47;;;3.70;;
9174;SDS011;54374;50.196;8.050;2022-08-03T04:51:19;5.03;;;2.95;;
9174;SDS011;54374;50.196;8.050;2022-08-03T04:53:46;4.10;;;3.33;;
9174;SDS011;54374;50.196;8.050;2022-08-03T04:56:13;4.55;;;3.20;;
9174;SDS011;54374;50.196;8.050;2022-08-03T04:58:42;3.58;;;2.92;;
9174;SDS011;54374;50.196;8.050;2022-08-03T05:01:09;3.45;;;3.15;;
9174;SDS011;54374;50.196;8.050;2022-08-03T05:03:36;3.50;;;3.20;;
9174;SDS011;54374;50.196;8.050;2022-08-03T05:06:04;4.28;;;3.50;;
9174;SDS011;54374;50.196;8.050;2022-08-03T05:08:31;4.45;;;3.03;;
9174;SDS011;54374;50.196;8.050;2022-08-03T05:10:58;4.80;;;3.15;;
9174;SDS011;54374;50.196;8.050;2022-08-03T05:13:27;4.25;;;3.72;;
9174;SDS011;54374;50.196;8.050;2022-08-03T05:15:55;4.03;;;3.45;;
9174;SDS011;54374;50.196;8.050;2022-08-03T05:18:23;3.88;;;3.47;;
9174;SDS011;54374;50.196;8.050;2022-08-03T05:20:50;3.77;;;3.10;;
9174;SDS011;54374;50.196;8.050;2022-08-03T05:23:17;5.60;;;3.13;;
9174;SDS011;54374;50.196;8.050;2022-08-03T05:25:45;3.70;;;3.33;;
9174;SDS011;54374;50.196;8.050;2022-08-03T05:28:12;4.63;;;3.30;;
9174;SDS011;54374;50.196;8.050;2022-08-03T05:30:39;3.23;;;2.93;;
9174;SDS011;54374;50.196;8.050;2022-08-03T05:33:08;3.30;;;3.00;;
9174;SDS011;54374;50.196;8.050;2022-08-03T05:35:35;4.20;;;3.13;;
9174;SDS011;54374;50.196;8.050;2022-08-03T05:38:03;2.90;;;2.70;;
9174;SDS011;54374;50.196;8.050;2022-08-03T05:40:30;3.20;;;2.90;;
9174;SDS011;54374;50.196;8.050;2022-08-03T05:42:58;3.20;;;2.90;;
9174;SDS011;54374;50.196;8.050;2022-08-03T05:45:27;3.00;;;2.80;;
9174;SDS011;54374;50.196;8.050;2022-08-03T05:47:54;3.53;;;3.23;;
9174;SDS011;54374;50.196;8.050;2022-08-03T05:50:23;3.27;;;2.80;;
9174;SDS011;54374;50.196;8.050;2022-08-03T05:52:50;2.90;;;2.63;;
9174;SDS011;54374;50.196;8.050;2022-08-03T05:55:20;3.40;;;3.10;;
9174;SDS011;54374;50.196;8.050;2022-08-03T05:57:48;3.00;;;2.70;;
9174;SDS011;54374;50.196;8.050;2022-08-03T06:00:16;4.10;;;3.07;;
9174;SDS011;54374;50.196;8.050;2022-08-03T06:02:43;3.23;;;2.73;;
9174;SDS011;54374;50.196;8.050;2022-08-03T06:05:11;3.20;;;2.70;;
9174;SDS011;54374;50.196;8.050;2022-08-03T06:07:39;4.97;;;3.43;;
9174;SDS011;54374;50.196;8.050;2022-08-03T06:10:07;3.50;;;3.20;;
9174;SDS011;54374;50.196;8.050;2022-08-03T06:12:34;2.90;;;2.70;;
9174;SDS011;54374;50.196;8.050;2022-08-03T06:15:01;3.03;;;2.57;;
9174;SDS011;54374;50.196;8.050;2022-08-03T06:17:29;3.37;;;3.07;;
9174;SDS011;54374;50.196;8.050;2022-08-03T06:19:56;3.33;;;3.03;;
9174;SDS011;54374;50.196;8.050;2022-08-03T06:22:23;4.70;;;2.93;;
9174;SDS011;54374;50.196;8.050;2022-08-03T06:24:52;2.73;;;2.53;;
9174;SDS011;54374;50.196;8.050;2022-08-03T06:27:19;4.13;;;2.50;;
9174;SDS011;54374;50.196;8.050;2022-08-03T06:29:46;3.07;;;2.87;;
9174;SDS011;54374;50.196;8.050;2022-08-03T06:32:13;2.67;;;2.47;;
9174;SDS011;54374;50.196;8.050;2022-08-03T06:34:40;2.83;;;2.63;;
9174;SDS011;54374;50.196;8.050;2022-08-03T06:37:07;2.87;;;2.50;;
9174;SDS011;54374;50.196;8.050;2022-08-03T06:39:36;9.40;;;3.00;;
9174;SDS011;54374;50.196;8.050;2022-08-03T06:42:04;4.20;;;2.70;;
9174;SDS011;54374;50.196;8.050;2022-08-03T06:44:32;3.77;;;3.00;;
9174;SDS011;54374;50.196;8.050;2022-08-03T06:47:01;3.73;;;2.50;;
9174;SDS011;54374;50.196;8.050;2022-08-03T06:49:28;3.10;;;2.80;;
9174;SDS011;54374;50.196;8.050;2022-08-03T06:51:55;2.80;;;2.60;;
9174;SDS011;54374;50.196;8.050;2022-08-03T06:54:22;3.70;;;2.70;;
9174;SDS011;54374;50.196;8.050;2022-08-03T06:56:49;3.33;;;3.03;;
9174;SDS011;54374;50.196;8.050;2022-08-03T06:59:18;3.13;;;2.83;;
9174;SDS011;54374;50.196;8.050;2022-08-03T07:01:45;2.90;;;2.40;;
9174;SDS011;54374;50.196;8.050;2022-08-03T07:04:12;2.77;;;2.57;;
9174;SDS011;54374;50.196;8.050;2022-08-03T07:06:39;3.20;;;2.27;;
9174;SDS011;54374;50.196;8.050;2022-08-03T07:09:06;2.50;;;2.30;;
9174;SDS011;54374;50.196;8.050;2022-08-03T07:11:33;4.30;;;2.50;;
9174;SDS011;54374;50.196;8.050;2022-08-03T07:14:00;3.93;;;2.67;;
9174;SDS011;54374;50.196;8.050;2022-08-03T07:16:30;2.13;;;2.00;;
9174;SDS011;54374;50.196;8.050;2022-08-03T07:18:57;2.50;;;2.30;;
9174;SDS011;54374;50.196;8.050;2022-08-03T07:21:24;2.53;;;2.33;;
9174;SDS011;54374;50.196;8.050;2022-08-03T07:23:51;4.20;;;2.20;;
9174;SDS011;54374;50.196;8.050;2022-08-03T07:26:18;2.80;;;2.60;;
9174;SDS011;54374;50.196;8.050;2022-08-03T07:28:45;2.43;;;2.23;;
9174;SDS011;54374;50.196;8.050;2022-08-03T07:31:12;3.20;;;2.40;;
9174;SDS011;54374;50.196;8.050;2022-08-03T07:33:41;3.10;;;2.90;;
9174;SDS011;54374;50.196;8.050;2022-08-03T07:36:08;2.50;;;2.30;;
9174;SDS011;54374;50.196;8.050;2022-08-03T07:38:35;2.60;;;2.20;;
9174;SDS011;54374;50.196;8.050;2022-08-03T07:41:02;2.33;;;2.10;;
9174;SDS011;54374;50.196;8.050;2022-08-03T07:43:29;2.23;;;2.03;;
9174;SDS011;54374;50.196;8.050;2022-08-03T07:45:56;4.43;;;2.30;;
9174;SDS011;54374;50.196;8.050;2022-08-03T07:48:24;5.80;;;2.10;;
9174;SDS011;54374;50.196;8.050;2022-08-03T07:50:52;3.30;;;2.33;;
9174;SDS011;54374;50.196;8.050;2022-08-03T07:53:19;2.77;;;2.53;;
9174;SDS011;54374;50.196;8.050;2022-08-03T07:55:46;2.40;;;2.20;;
9174;SDS011;54374;50.196;8.050;2022-08-03T07:58:13;2.27;;;2.07;;
9174;SDS011;54374;50.196;8.050;2022-08-03T08:00:42;3.00;;;2.40;;
9174;SDS011;54374;50.196;8.050;2022-08-03T08:03:09;2.27;;;2.07;;
9174;SDS011;54374;50.196;8.050;2022-08-03T08:05:37;2.23;;;2.03;;
9174;SDS011;54374;50.196;8.050;2022-08-03T08:08:06;3.23;;;2.00;;
9174;SDS011;54374;50.196;8.050;2022-08-03T08:10:33;2.70;;;1.73;;
9174;SDS011;54374;50.196;8.050;2022-08-03T08:13:02;7.00;;;2.30;;
9174;SDS011;54374;50.196;8.050;2022-08-03T08:15:30;2.20;;;2.00;;
9174;SDS011;54374;50.196;8.050;2022-08-03T08:17:59;2.80;;;2.20;;
9174;SDS011;54374;50.196;8.050;2022-08-03T08:20:27;3.73;;;2.30;;
9174;SDS011;54374;50.196;8.050;2022-08-03T08:22:57;2.20;;;2.10;;
9174;SDS011;54374;50.196;8.050;2022-08-03T08:25:27;5.17;;;2.30;;
9174;SDS011;54374;50.196;8.050;2022-08-03T08:27:56;2.73;;;2.50;;
9174;SDS011;54374;50.196;8.050;2022-08-03T08:30:26;3.23;;;2.30;;
9174;SDS011;54374;50.196;8.050;2022-08-03T08:32:53;5.23;;;1.97;;
9174;SDS011;54374;50.196;8.050;2022-08-03T08:35:21;3.40;;;2.27;;
9174;SDS011;54374;50.196;8.050;2022-08-03T08:37:49;2.37;;;2.13;;
9174;SDS011;54374;50.196;8.050;2022-08-03T08:40:19;2.53;;;2.33;;
9174;SDS011;54374;50.196;8.050;2022-08-03T08:42:48;2.07;;;1.90;;
9174;SDS011;54374;50.196;8.050;2022-08-03T08:45:15;2.40;;;2.20;;
9174;SDS011;54374;50.196;8.050;2022-08-03T08:47:44;2.93;;;1.80;;
9174;SDS011;54374;50.196;8.050;2022-08-03T08:50:12;2.10;;;1.93;;
9174;SDS011;54374;50.196;8.050;2022-08-03T08:52:42;3.90;;;2.30;;
9174;SDS011;54374;50.196;8.050;2022-08-03T08:55:13;3.20;;;2.33;;
9174;SDS011;54374;50.196;8.050;2022-08-03T08:57:46;5.43;;;2.10;;
9174;SDS011;54374;50.196;8.050;2022-08-03T09:00:16;2.53;;;2.33;;
9174;SDS011;54374;50.196;8.050;2022-08-03T09:02:44;3.53;;;2.30;;
9174;SDS011;54374;50.196;8.050;2022-08-03T09:05:12;2.53;;;2.33;;
9174;SDS011;54374;50.196;8.050;2022-08-03T09:07:41;3.23;;;2.20;;
9174;SDS011;54374;50.196;8.050;2022-08-03T09:10:11;2.10;;;2.00;;
9174;SDS011;54374;50.196;8.050;2022-08-03T09:12:40;1.93;;;1.83;;
9174;SDS011;54374;50.196;8.050;2022-08-03T09:15:17;3.70;;;2.23;;
9174;SDS011;54374;50.196;8.050;2022-08-03T09:17:48;6.20;;;2.03;;
9174;SDS011;54374;50.196;8.050;2022-08-03T09:20:20;3.00;;;2.23;;
9174;SDS011;54374;50.196;8.050;2022-08-03T09:22:52;3.20;;;2.20;;
9174;SDS011;54374;50.196;8.050;2022-08-03T09:25:25;2.23;;;2.07;;
9174;SDS011;54374;50.196;8.050;2022-08-03T09:28:04;4.50;;;1.93;;
9174;SDS011;54374;50.196;8.050;2022-08-03T09:30:35;3.03;;;2.23;;
9174;SDS011;54374;50.196;8.050;2022-08-03T09:33:04;2.17;;;2.00;;
9174;SDS011;54374;50.196;8.050;2022-08-03T09:35:33;2.37;;;2.17;;
9174;SDS011;54374;50.196;8.050;2022-08-03T09:38:11;3.60;;;2.17;;
9174;SDS011;54374;50.196;8.050;2022-08-03T09:40:39;2.40;;;2.20;;
9174;SDS011;54374;50.196;8.050;2022-08-03T09:43:06;3.03;;;1.80;;
9174;SDS011;54374;50.196;8.050;2022-08-03T09:45:35;2.93;;;2.20;;
9174;SDS011;54374;50.196;8.050;2022-08-03T09:50:49;3.70;;;2.40;;
9174;SDS011;54374;50.196;8.050;2022-08-03T09:53:17;3.97;;;2.13;;
9174;SDS011;54374;50.196;8.050;2022-08-03T09:55:54;2.70;;;2.50;;
9174;SDS011;54374;50.196;8.050;2022-08-03T09:58:25;3.17;;;2.30;;
9174;SDS011;54374;50.196;8.050;2022-08-03T10:00:55;2.03;;;1.93;;
9174;SDS011;54374;50.196;8.050;2022-08-03T10:03:25;2.33;;;2.13;;
9174;SDS011;54374;50.196;8.050;2022-08-03T10:05:54;2.07;;;1.97;;
9174;SDS011;54374;50.196;8.050;2022-08-03T10:08:22;2.70;;;2.37;;
9174;SDS011;54374;50.196;8.050;2022-08-03T10:10:50;2.90;;;2.03;;
9174;SDS011;54374;50.196;8.050;2022-08-03T10:13:19;2.30;;;2.20;;
9174;SDS011;54374;50.196;8.050;2022-08-03T10:15:47;2.20;;;2.00;;
9174;SDS011;54374;50.196;8.050;2022-08-03T10:18:16;2.40;;;1.70;;
9174;SDS011;54374;50.196;8.050;2022-08-03T10:20:44;1.83;;;1.73;;
9174;SDS011;54374;50.196;8.050;2022-08-03T10:23:15;2.57;;;2.37;;
9174;SDS011;54374;50.196;8.050;2022-08-03T10:25:45;2.27;;;1.97;;
9174;SDS011;54374;50.196;8.050;2022-08-03T10:28:14;3.30;;;2.00;;
9174;SDS011;54374;50.196;8.050;2022-08-03T10:30:46;3.10;;;2.33;;
9174;SDS011;54374;50.196;8.050;2022-08-03T10:33:18;2.10;;;1.90;;
9174;SDS011;54374;50.196;8.050;2022-08-03T10:35:46;2.87;;;2.10;;
9174;SDS011;54374;50.196;8.050;2022-08-03T10:38:21;2.10;;;1.87;;
9174;SDS011;54374;50.196;8.050;2022-08-03T10:40:52;2.43;;;2.00;;
9174;SDS011;54374;50.196;8.050;2022-08-03T10:43:20;1.83;;;1.73;;
9174;SDS011;54374;50.196;8.050;2022-08-03T10:45:51;1.97;;;1.87;;
9174;SDS011;54374;50.196;8.050;2022-08-03T10:48:19;3.30;;;1.83;;
9174;SDS011;54374;50.196;8.050;2022-08-03T10:50:47;2.53;;;1.93;;
9174;SDS011;54374;50.196;8.050;2022-08-03T10:53:15;2.43;;;2.03;;
9174;SDS011;54374;50.196;8.050;2022-08-03T10:56:00;1.83;;;1.73;;
9174;SDS011;54374;50.196;8.050;2022-08-03T10:58:45;2.30;;;2.10;;
9174;SDS011;54374;50.196;8.050;2022-08-03T11:01:14;1.60;;;1.50;;
9174;SDS011;54374;50.196;8.050;2022-08-03T11:06:45;2.53;;;2.23;;
9174;SDS011;54374;50.196;8.050;2022-08-03T11:09:14;2.33;;;1.83;;
9174;SDS011;54374;50.196;8.050;2022-08-03T11:11:44;2.37;;;2.17;;
9174;SDS011;54374;50.196;8.050;2022-08-03T11:14:14;1.90;;;1.80;;
9174;SDS011;54374;50.196;8.050;2022-08-03T11:16:43;2.77;;;2.40;;
9174;SDS011;54374;50.196;8.050;2022-08-03T11:19:14;3.20;;;2.10;;
9174;SDS011;54374;50.196;8.050;2022-08-03T11:21:53;2.47;;;2.00;;
9174;SDS011;54374;50.196;8.050;2022-08-03T11:27:24;2.10;;;1.90;;
9174;SDS011;54374;50.196;8.050;2022-08-03T11:29:56;1.63;;;1.53;;
9174;SDS011;54374;50.196;8.050;2022-08-03T11:35:33;2.33;;;2.00;;
9174;SDS011;54374;50.196;8.050;2022-08-03T11:38:05;2.63;;;2.10;;
9174;SDS011;54374;50.196;8.050;2022-08-03T11:40:40;1.97;;;1.87;;
9174;SDS011;54374;50.196;8.050;2022-08-03T11:46:09;2.13;;;1.60;;
9174;SDS011;54374;50.196;8.050;2022-08-03T11:48:42;2.73;;;1.90;;
9174;SDS011;54374;50.196;8.050;2022-08-03T11:51:19;2.10;;;1.83;;
9174;SDS011;54374;50.196;8.050;2022-08-03T11:53:50;1.80;;;1.70;;
9174;SDS011;54374;50.196;8.050;2022-08-03T11:56:18;1.87;;;1.77;;
9174;SDS011;54374;50.196;8.050;2022-08-03T11:58:45;2.90;;;1.73;;
9174;SDS011;54374;50.196;8.050;2022-08-03T12:01:13;2.27;;;1.93;;
9174;SDS011;54374;50.196;8.050;2022-08-03T12:03:42;4.63;;;1.33;;
9174;SDS011;54374;50.196;8.050;2022-08-03T12:06:09;2.27;;;1.40;;
9174;SDS011;54374;50.196;8.050;2022-08-03T12:08:39;1.67;;;1.50;;
9174;SDS011;54374;50.196;8.050;2022-08-03T12:11:08;3.50;;;1.60;;
9174;SDS011;54374;50.196;8.050;2022-08-03T12:13:40;2.17;;;2.00;;
9174;SDS011;54374;50.196;8.050;2022-08-03T12:16:08;1.80;;;1.70;;
9174;SDS011;54374;50.196;8.050;2022-08-03T12:18:35;1.80;;;1.70;;
9174;SDS011;54374;50.196;8.050;2022-08-03T12:21:04;2.37;;;1.70;;
9174;SDS011;54374;50.196;8.050;2022-08-03T12:23:32;6.07;;;1.87;;
9174;SDS011;54374;50.196;8.050;2022-08-03T12:26:04;1.80;;;1.70;;
9174;SDS011;54374;50.196;8.050;2022-08-03T12:28:32;1.80;;;1.70;;
9174;SDS011;54374;50.196;8.050;2022-08-03T12:31:00;5.03;;;1.60;;
9174;SDS011;54374;50.196;8.050;2022-08-03T12:33:30;1.83;;;1.73;;
9174;SDS011;54374;50.196;8.050;2022-08-03T12:36:02;2.00;;;1.90;;
9174;SDS011;54374;50.196;8.050;2022-08-03T12:38:32;2.83;;;2.63;;
9174;SDS011;54374;50.196;8.050;2022-08-03T12:41:02;1.77;;;1.60;;
9174;SDS011;54374;50.196;8.050;2022-08-03T12:43:33;1.90;;;1.80;;
9174;SDS011;54374;50.196;8.050;2022-08-03T12:46:06;1.80;;;1.70;;
9174;SDS011;54374;50.196;8.050;2022-08-03T12:51:26;2.17;;;1.97;;
9174;SDS011;54374;50.196;8.050;2022-08-03T12:53:54;1.40;;;1.30;;
9174;SDS011;54374;50.196;8.050;2022-08-03T12:56:24;1.93;;;1.67;;
9174;SDS011;54374;50.196;8.050;2022-08-03T12:58:51;2.00;;;1.90;;
9174;SDS011;54374;50.196;8.050;2022-08-03T13:01:18;2.23;;;1.63;;
9174;SDS011;54374;50.196;8.050;2022-08-03T13:03:49;2.23;;;1.70;;
9174;SDS011;54374;50.196;8.050;2022-08-03T13:06:21;2.07;;;1.87;;
9174;SDS011;54374;50.196;8.050;2022-08-03T13:08:59;2.90;;;2.10;;
9174;SDS011;54374;50.196;8.050;2022-08-03T13:11:30;1.73;;;1.63;;
9174;SDS011;54374;50.196;8.050;2022-08-03T13:13:59;2.53;;;1.70;;
9174;SDS011;54374;50.196;8.050;2022-08-03T13:16:27;1.73;;;1.63;;
9174;SDS011;54374;50.196;8.050;2022-08-03T13:18:54;2.10;;;1.90;;
9174;SDS011;54374;50.196;8.050;2022-08-03T13:21:21;2.03;;;1.83;;
9174;SDS011;54374;50.196;8.050;2022-08-03T13:23:48;2.00;;;1.50;;
9174;SDS011;54374;50.196;8.050;2022-08-03T13:26:16;2.23;;;1.57;;
9174;SDS011;54374;50.196;8.050;2022-08-03T13:28:44;1.67;;;1.57;;
9174;SDS011;54374;50.196;8.050;2022-08-03T13:31:11;2.13;;;1.43;;
9174;SDS011;54374;50.196;8.050;2022-08-03T13:33:38;2.23;;;1.73;;
9174;SDS011;54374;50.196;8.050;2022-08-03T13:36:05;2.13;;;1.93;;
9174;SDS011;54374;50.196;8.050;2022-08-03T13:38:33;1.57;;;1.47;;
9174;SDS011;54374;50.196;8.050;2022-08-03T13:41:00;1.80;;;1.70;;
9174;SDS011;54374;50.196;8.050;2022-08-03T13:43:27;1.60;;;1.50;;
9174;SDS011;54374;50.196;8.050;2022-08-03T13:45:56;3.03;;;1.70;;
9174;SDS011;54374;50.196;8.050;2022-08-03T13:48:23;1.77;;;1.67;;
9174;SDS011;54374;50.196;8.050;2022-08-03T13:50:50;1.60;;;1.50;;
9174;SDS011;54374;50.196;8.050;2022-08-03T13:53:18;1.67;;;1.57;;
9174;SDS011;54374;50.196;8.050;2022-08-03T13:55:48;2.20;;;1.70;;
9174;SDS011;54374;50.196;8.050;2022-08-03T13:58:15;2.73;;;2.00;;
9174;SDS011;54374;50.196;8.050;2022-08-03T14:00:42;1.80;;;1.70;;
9174;SDS011;54374;50.196;8.050;2022-08-03T14:03:11;1.87;;;1.77;;
9174;SDS011;54374;50.196;8.050;2022-08-03T14:05:38;1.67;;;1.57;;
9174;SDS011;54374;50.196;8.050;2022-08-03T14:08:05;2.07;;;1.63;;
9174;SDS011;54374;50.196;8.050;2022-08-03T14:10:34;3.80;;;1.70;;
9174;SDS011;54374;50.196;8.050;2022-08-03T14:13:03;1.60;;;1.50;;
9174;SDS011;54374;50.196;8.050;2022-08-03T14:15:31;7.37;;;2.20;;
9174;SDS011;54374;50.196;8.050;2022-08-03T14:17:58;1.80;;;1.60;;
9174;SDS011;54374;50.196;8.050;2022-08-03T14:20:27;2.37;;;1.63;;
9174;SDS011;54374;50.196;8.050;2022-08-03T14:22:55;1.50;;;1.40;;
9174;SDS011;54374;50.196;8.050;2022-08-03T14:25:22;3.67;;;2.00;;
9174;SDS011;54374;50.196;8.050;2022-08-03T14:27:49;1.90;;;1.80;;
9174;SDS011;54374;50.196;8.050;2022-08-03T14:30:16;3.83;;;1.90;;
9174;SDS011;54374;50.196;8.050;2022-08-03T14:32:43;2.33;;;2.13;;
9174;SDS011;54374;50.196;8.050;2022-08-03T14:35:10;3.43;;;1.77;;
9174;SDS011;54374;50.196;8.050;2022-08-03T14:37:39;2.00;;;1.87;;
9174;SDS011;54374;50.196;8.050;2022-08-03T14:40:06;2.00;;;1.60;;
9174;SDS011;54374;50.196;8.050;2022-08-03T14:42:34;2.07;;;1.77;;
9174;SDS011;54374;50.196;8.050;2022-08-03T14:45:01;2.10;;;1.50;;
9174;SDS011;54374;50.196;8.050;2022-08-03T14:47:28;1.60;;;1.50;;
9174;SDS011;54374;50.196;8.050;2022-08-03T14:49:55;1.43;;;1.33;;
9174;SDS011;54374;50.196;8.050;2022-08-03T14:52:22;1.60;;;1.33;;
9174;SDS011;54374;50.196;8.050;2022-08-03T14:54:51;1.67;;;1.57;;
9174;SDS011;54374;50.196;8.050;2022-08-03T14:57:20;1.83;;;1.63;;
9174;SDS011;54374;50.196;8.050;2022-08-03T14:59:48;1.93;;;1.50;;
9174;SDS011;54374;50.196;8.050;2022-08-03T15:02:15;2.60;;;1.70;;
9174;SDS011;54374;50.196;8.050;2022-08-03T15:04:42;2.00;;;1.80;;
9174;SDS011;54374;50.196;8.050;2022-08-03T15:07:11;1.80;;;1.63;;
9174;SDS011;54374;50.196;8.050;2022-08-03T15:09:38;1.80;;;1.70;;
9174;SDS011;54374;50.196;8.050;2022-08-03T15:12:08;1.80;;;1.70;;
9174;SDS011;54374;50.196;8.050;2022-08-03T15:14:35;2.87;;;2.13;;
9174;SDS011;54374;50.196;8.050;2022-08-03T15:17:02;1.70;;;1.60;;
9174;SDS011;54374;50.196;8.050;2022-08-03T15:19:30;2.53;;;1.40;;
9174;SDS011;54374;50.196;8.050;2022-08-03T15:21:58;1.90;;;1.80;;
9174;SDS011;54374;50.196;8.050;2022-08-03T15:24:26;1.43;;;1.33;;
9174;SDS011;54374;50.196;8.050;2022-08-03T15:26:53;3.43;;;1.43;;
9174;SDS011;54374;50.196;8.050;2022-08-03T15:29:22;1.60;;;1.50;;
9174;SDS011;54374;50.196;8.050;2022-08-03T15:31:49;4.27;;;1.80;;